SVG weather

Stavanger Airport Sola
Stavanger, Rogaland, Norway

Public forecast

Using degrees Celsius for public forecast. Weather courtesy of forecast.io.

Current aviation weather report (METAR) for Stavanger Airport Sola

Retrieved 2019/11/21 05:20 UTC (0 seconds ago):

ENZV 210520Z VRB01KT 9999 -RA FEW023 BKN041 04/03 Q1017 NOSIG

Aviation forecast (TAF) for Stavanger Airport Sola

Retrieved 2019-11-21 00:57 UTC (4 hours ago):

TAF ENZV 202300Z 2100/2124 VRB05KT 9999 BKN030